Riding Mill, United Kingdom
Current Conditions -  °F | °C
As of 1:20 PM on Friday 24 Oct 2014 (Local Time) from EGNT Reporting Station
Scattered Clouds Scattered Clouds  
Wind Chill: 55°   Ceiling: Unl
Heat Index: 55°   Visibility: 6mi
Dew Point: 43°   Wind: 8mph
Humidity: 63%   Direction: 230°SW
Pressure: 29.8"   Gusts: NA
Location:  54.96°N, 1.99°W
Report Text: EGNT 241220Z 23007KT 180V260 9999 SCT043 13/06 Q1009
Loading
Personal Weather Stations






























Interactive Weather Map New forecast layout! Learn more

10-Day Weather Forecast

Advertisements
Track Severe Weather on mobile